createdAt,value
2019-04-03T00:02:22.741Z,100162.26
2019-04-03T00:04:56.742Z,100164.77
2019-04-03T00:07:30.586Z,100174.90
2019-04-03T00:10:06.638Z,100173.31
2019-04-03T00:12:41.275Z,100171.10
2019-04-03T00:15:15.352Z,100169.02
2019-04-03T00:17:49.073Z,100182.19
2019-04-03T00:20:22.867Z,100184.09
2019-04-03T00:22:56.585Z,100178.05
2019-04-03T00:25:30.656Z,100184.89
2019-04-03T00:28:04.467Z,100186.69
2019-04-03T00:30:38.577Z,100186.69
2019-04-03T00:33:12.269Z,100188.03
2019-04-03T00:35:46.332Z,100176.55
2019-04-03T00:38:20.038Z,100194.03
2019-04-03T00:40:54.262Z,100181.50
2019-04-03T00:43:28.627Z,100195.52
2019-04-03T00:46:02.777Z,100206.05
2019-04-03T00:48:36.749Z,100183.81
2019-04-03T00:51:10.814Z,100188.45
2019-04-03T00:53:44.771Z,100188.45
2019-04-03T00:56:18.508Z,100198.67
2019-04-03T00:58:52.221Z,100198.67
2019-04-03T01:01:26.521Z,100203.01
2019-04-03T01:04:00.772Z,100203.01
2019-04-03T01:06:34.664Z,100206.13
2019-04-03T01:09:08.827Z,100206.13
2019-04-03T01:11:42.574Z,100207.06
2019-04-03T01:14:16.344Z,100207.06
2019-04-03T01:16:50.094Z,100201.67
2019-04-03T01:19:24.064Z,100201.67
2019-04-03T01:21:57.901Z,100194.67
2019-04-03T01:24:31.599Z,100195.17
2019-04-03T01:27:05.624Z,100197.58
2019-04-03T01:29:42.228Z,100194.55
2019-04-03T01:32:16.232Z,100194.55
2019-04-03T01:34:50.229Z,100198.08
2019-04-03T01:37:24.188Z,100198.08
2019-04-03T01:39:57.942Z,100194.13
2019-04-03T01:42:31.709Z,100194.13
2019-04-03T01:45:05.950Z,100194.41
2019-04-03T01:47:40.025Z,100191.98
2019-04-03T01:50:13.974Z,100191.98
2019-04-03T01:52:47.901Z,100189.22
2019-04-03T01:55:21.673Z,100189.22
2019-04-03T01:57:55.666Z,100199.34
2019-04-03T02:00:29.672Z,100199.34
2019-04-03T02:03:03.405Z,100198.70
2019-04-03T02:05:37.207Z,100199.66
2019-04-03T02:08:14.236Z,100199.66
2019-04-03T02:10:48.949Z,100210.56
2019-04-03T02:13:22.894Z,100206.73
2019-04-03T02:15:56.600Z,100206.73
2019-04-03T02:18:30.444Z,100201.84
2019-04-03T02:21:04.284Z,100209.72
2019-04-03T02:23:38.027Z,100197.89
2019-04-03T02:26:11.963Z,100197.89
2019-04-03T02:28:45.718Z,100209.50
2019-04-03T02:31:20.246Z,100203.73
2019-04-03T02:33:54.243Z,100198.22
2019-04-03T02:36:28.022Z,100199.07
2019-04-03T02:39:01.764Z,100199.07
2019-04-03T02:41:37.046Z,100197.19
2019-04-03T02:44:11.670Z,100190.39
2019-04-03T02:46:45.708Z,100187.28
2019-04-03T02:49:19.806Z,100193.44
2019-04-03T02:51:53.890Z,100193.44
2019-04-03T02:54:28.967Z,100190.89
2019-04-03T02:57:02.760Z,100190.89
2019-04-03T02:59:36.475Z,100188.34
2019-04-03T03:02:12.551Z,100194.17
2019-04-03T03:04:45.711Z,100201.04
2019-04-03T03:07:20.081Z,100193.31
2019-04-03T03:09:54.490Z,100194.59
2019-04-03T03:12:28.754Z,100196.52
2019-04-03T03:15:02.749Z,100201.05
2019-04-03T03:17:37.645Z,100198.64
2019-04-03T03:20:12.184Z,100201.19
2019-04-03T03:22:49.842Z,100198.50
2019-04-03T03:25:22.282Z,100197.14
2019-04-03T03:27:57.352Z,100197.14
2019-04-03T03:30:41.898Z,100208.11
2019-04-03T03:33:26.448Z,100208.11
2019-04-03T03:35:47.208Z,100206.27
2019-04-03T03:38:19.863Z,100201.25
2019-04-03T03:40:54.428Z,100201.61
2019-04-03T03:43:28.794Z,100210.73
2019-04-03T03:46:03.307Z,100199.55
2019-04-03T03:48:42.109Z,100205.28
2019-04-03T03:51:14.735Z,100206.05
2019-04-03T03:53:49.315Z,100203.64
2019-04-03T03:56:23.309Z,100209.16
2019-04-03T03:58:58.055Z,100211.30
2019-04-03T04:01:32.919Z,100205.05
2019-04-03T04:04:06.603Z,100205.05
2019-04-03T04:06:40.523Z,100211.55
2019-04-03T04:09:17.124Z,100211.30
2019-04-03T04:11:49.778Z,100213.25
2019-04-03T04:14:23.927Z,100213.61
2019-04-03T04:16:57.968Z,100211.62
2019-04-03T04:19:31.774Z,100213.48
2019-04-03T04:22:05.566Z,100215.81
2019-04-03T04:24:39.574Z,100223.74
2019-04-03T04:27:13.565Z,100211.30
2019-04-03T04:29:47.794Z,100218.34
2019-04-03T04:32:21.530Z,100225.91
2019-04-03T04:34:55.221Z,100222.73
2019-04-03T04:37:29.608Z,100220.32
2019-04-03T04:40:03.674Z,100229.59
2019-04-03T04:42:38.478Z,100229.97
2019-04-03T04:45:12.531Z,100225.49
2019-04-03T04:47:46.901Z,100234.00
2019-04-03T04:50:25.334Z,100239.23
2019-04-03T04:52:59.949Z,100238.88
2019-04-03T04:55:35.122Z,100239.37
2019-04-03T04:58:09.671Z,100246.36
2019-04-03T05:00:47.471Z,100249.22
2019-04-03T05:03:21.882Z,100247.08
2019-04-03T05:05:58.308Z,100242.62
2019-04-03T05:08:32.950Z,100247.82
2019-04-03T05:11:07.485Z,100236.57
2019-04-03T05:13:41.906Z,100241.58
2019-04-03T05:16:15.622Z,100240.05
2019-04-03T05:18:49.345Z,100253.73
2019-04-03T05:21:23.320Z,100255.12
2019-04-03T05:24:10.359Z,100259.08
2019-04-03T05:26:33.738Z,100261.92
2019-04-03T05:29:07.785Z,100263.00
2019-04-03T05:31:41.682Z,100265.69
2019-04-03T05:34:15.691Z,100270.44
2019-04-03T05:36:49.677Z,100269.81
2019-04-03T05:39:24.735Z,100262.38
2019-04-03T05:41:59.563Z,100268.83
2019-04-03T05:44:34.386Z,100273.84
2019-04-03T05:47:08.567Z,100270.59
2019-04-03T05:49:46.407Z,100268.17
2019-04-03T05:52:19.761Z,100274.09
2019-04-03T05:54:54.275Z,100269.45
2019-04-03T05:57:29.368Z,100281.53
2019-04-03T06:00:06.258Z,100280.68
2019-04-03T06:02:39.488Z,100282.25
2019-04-03T06:05:13.495Z,100283.20
2019-04-03T06:07:49.373Z,100284.96
2019-04-03T06:10:22.661Z,100283.56
2019-04-03T06:12:56.357Z,100288.91
2019-04-03T06:15:30.154Z,100281.31
2019-04-03T06:18:03.939Z,100288.66
2019-04-03T06:20:38.014Z,100285.53
2019-04-03T06:23:11.701Z,100274.30
2019-04-03T06:25:45.442Z,100272.94
2019-04-03T06:28:19.198Z,100279.03
2019-04-03T06:30:55.580Z,100276.38
2019-04-03T06:33:31.071Z,100263.92
2019-04-03T06:36:04.009Z,100263.52
2019-04-03T06:38:37.771Z,100263.52
2019-04-03T06:41:11.644Z,100274.27
2019-04-03T06:43:47.264Z,100264.74
2019-04-03T06:46:21.274Z,100266.66
2019-04-03T06:48:55.785Z,100253.13
2019-04-03T06:51:30.100Z,100261.70
2019-04-03T06:54:07.150Z,100261.70
2019-04-03T06:56:41.139Z,100266.33
2019-04-03T06:59:16.517Z,100266.33
2019-04-03T07:01:52.348Z,100269.27
2019-04-03T07:04:25.922Z,100269.27
2019-04-03T07:06:59.842Z,100266.16
2019-04-03T07:09:36.560Z,100268.03
2019-04-03T07:12:09.014Z,100268.03
2019-04-03T07:14:43.406Z,100259.00
2019-04-03T07:17:17.215Z,100262.05
2019-04-03T07:19:51.002Z,100279.20
2019-04-03T07:22:27.110Z,100286.58
2019-04-03T07:25:02.764Z,100289.77
2019-04-03T07:27:37.388Z,100289.77
2019-04-03T07:30:12.094Z,100295.17
2019-04-03T07:32:45.936Z,100293.73
2019-04-03T07:35:19.679Z,100288.89
2019-04-03T07:37:53.629Z,100299.41
2019-04-03T07:40:27.599Z,100296.86
2019-04-03T07:43:01.404Z,100301.67
2019-04-03T07:45:35.103Z,100301.67
2019-04-03T07:48:08.853Z,100297.13
2019-04-03T07:50:43.057Z,100301.17
2019-04-03T07:53:17.828Z,100304.58
2019-04-03T07:55:55.024Z,100304.58
2019-04-03T07:58:30.609Z,100290.11
2019-04-03T08:01:03.649Z,100290.11
2019-04-03T08:03:37.528Z,100296.39
2019-04-03T08:06:11.226Z,100313.84
2019-04-03T08:08:45.170Z,100303.66
2019-04-03T08:11:18.925Z,100307.16
2019-04-03T08:13:52.749Z,100311.89
2019-04-03T08:16:27.233Z,100315.64
2019-04-03T08:19:01.573Z,100318.44
2019-04-03T08:21:35.649Z,100314.53
2019-04-03T08:24:09.587Z,100312.78
2019-04-03T08:26:43.590Z,100315.95
2019-04-03T08:29:17.577Z,100315.67
2019-04-03T08:31:51.412Z,100313.22
2019-04-03T08:34:25.163Z,100312.55
2019-04-03T08:37:01.423Z,100308.17
2019-04-03T08:39:34.468Z,100309.36
2019-04-03T08:42:08.170Z,100306.96
2019-04-03T08:44:42.159Z,100304.58
2019-04-03T08:47:16.171Z,100317.28
2019-04-03T08:49:50.122Z,100322.52
2019-04-03T08:52:24.267Z,100321.80
2019-04-03T08:54:58.034Z,100335.89
2019-04-03T08:57:32.082Z,100345.55
2019-04-03T09:00:06.705Z,100344.34
2019-04-03T09:02:43.509Z,100330.63
2019-04-03T09:05:17.322Z,100340.92
2019-04-03T09:07:51.893Z,100340.20
2019-04-03T09:10:25.707Z,100331.59
2019-04-03T09:12:59.422Z,100341.83
2019-04-03T09:15:33.709Z,100335.56
2019-04-03T09:18:07.791Z,100330.98
2019-04-03T09:20:43.388Z,100336.87
2019-04-03T09:23:17.226Z,100334.35
2019-04-03T09:25:51.547Z,100326.42
2019-04-03T09:28:25.222Z,100336.59
2019-04-03T09:30:58.969Z,100338.75
2019-04-03T09:33:32.733Z,100335.39
2019-04-03T09:36:06.570Z,100330.47
2019-04-03T09:38:41.485Z,100330.88
2019-04-03T09:41:18.505Z,100342.73
2019-04-03T09:43:53.403Z,100336.45
2019-04-03T09:46:26.800Z,100330.77
2019-04-03T09:49:00.568Z,100330.75
2019-04-03T09:51:34.316Z,100335.68
2019-04-03T09:54:08.185Z,100330.83
2019-04-03T09:56:57.206Z,100327.06
2019-04-03T09:59:17.578Z,100325.11
2019-04-03T10:01:51.355Z,100320.00
2019-04-03T10:04:26.310Z,100324.09
2019-04-03T10:07:02.031Z,100337.55
2019-04-03T10:09:38.444Z,100333.14
2019-04-03T10:12:11.502Z,100325.37
2019-04-03T10:14:45.284Z,100329.72
2019-04-03T10:17:19.206Z,100338.07
2019-04-03T10:19:52.936Z,100336.41
2019-04-03T10:22:27.258Z,100329.80
2019-04-03T10:25:04.849Z,100315.75
2019-04-03T10:27:36.991Z,100312.84
2019-04-03T10:30:13.286Z,100312.84
2019-04-03T10:32:47.012Z,100307.80
2019-04-03T10:35:20.790Z,100307.64
2019-04-03T10:37:54.532Z,100308.98
2019-04-03T10:40:28.504Z,100308.97
2019-04-03T10:43:04.690Z,100307.41
2019-04-03T10:45:38.134Z,100309.20
2019-04-03T10:48:12.287Z,100310.36
2019-04-03T10:50:46.030Z,100313.66
2019-04-03T10:53:20.365Z,100309.79
2019-04-03T10:55:54.900Z,100298.27
2019-04-03T10:58:29.047Z,100299.33
2019-04-03T11:01:02.860Z,100299.23
2019-04-03T11:03:37.001Z,100288.30
2019-04-03T11:06:11.455Z,100276.61
2019-04-03T11:08:45.226Z,100274.02
2019-04-03T11:11:19.243Z,100276.02
2019-04-03T11:13:53.067Z,100270.02
2019-04-03T11:16:26.791Z,100273.55
2019-04-03T11:19:05.109Z,100277.08
2019-04-03T11:21:36.522Z,100277.65
2019-04-03T11:24:10.314Z,100279.88
2019-04-03T11:26:44.057Z,100281.62
2019-04-03T11:29:18.225Z,100273.20
2019-04-03T11:31:52.242Z,100272.62
2019-04-03T11:34:26.003Z,100271.66
2019-04-03T11:37:00.547Z,100275.66
2019-04-03T11:39:37.454Z,100274.23
2019-04-03T11:42:22.469Z,100275.42
2019-04-03T11:44:46.459Z,100280.45
2019-04-03T11:47:20.365Z,100274.13
2019-04-03T11:49:54.575Z,100276.62
2019-04-03T11:52:28.643Z,100279.20
2019-04-03T11:55:02.525Z,100271.89
2019-04-03T11:57:36.357Z,100263.23
2019-04-03T12:00:15.603Z,100257.87
2019-04-03T12:02:49.367Z,100257.22
2019-04-03T12:05:23.182Z,100247.13
2019-04-03T12:07:57.449Z,100243.27
2019-04-03T12:10:32.831Z,100243.21
2019-04-03T12:13:07.069Z,100242.09
2019-04-03T12:15:40.721Z,100225.41
2019-04-03T12:18:14.424Z,100218.84
2019-04-03T12:20:49.943Z,100218.69
2019-04-03T12:23:26.844Z,100226.52
2019-04-03T12:26:00.246Z,100227.63
2019-04-03T12:28:34.254Z,100217.75
2019-04-03T12:31:08.395Z,100206.16
2019-04-03T12:33:52.412Z,100204.22
2019-04-03T12:36:17.554Z,100198.28
2019-04-03T12:38:55.039Z,100201.82
2019-04-03T12:41:27.970Z,100199.53
2019-04-03T12:44:01.753Z,100190.72
2019-04-03T12:46:37.360Z,100203.60
2019-04-03T12:49:11.084Z,100205.72
2019-04-03T12:51:44.812Z,100217.02
2019-04-03T12:54:20.635Z,100222.58
2019-04-03T12:56:54.057Z,100232.59
2019-04-03T12:59:28.096Z,100221.42
2019-04-03T13:02:01.916Z,100213.53
2019-04-03T13:04:35.829Z,100204.01
2019-04-03T13:07:13.421Z,100207.43
2019-04-03T13:09:45.398Z,100208.95
2019-04-03T13:12:21.990Z,100208.53
2019-04-03T13:14:55.130Z,100210.63
2019-04-03T13:17:29.185Z,100207.72
2019-04-03T13:20:05.631Z,100210.77
2019-04-03T13:22:41.305Z,100226.59
2019-04-03T13:25:16.186Z,100227.13
2019-04-03T13:27:49.860Z,100220.22
2019-04-03T13:30:24.483Z,100228.10
2019-04-03T13:33:02.982Z,100212.58
2019-04-03T13:35:34.038Z,100217.37
2019-04-03T13:38:08.500Z,100197.56
2019-04-03T13:40:42.211Z,100191.23
2019-04-03T13:43:16.252Z,100197.50
2019-04-03T13:45:50.119Z,100202.70
2019-04-03T13:48:24.005Z,100181.14
2019-04-03T13:50:57.824Z,100162.75
2019-04-03T13:53:31.948Z,100143.45
2019-04-03T13:56:06.751Z,100135.52
2019-04-03T13:58:41.661Z,100117.14
2019-04-03T14:01:15.904Z,100133.59
2019-04-03T14:03:50.938Z,100151.33
2019-04-03T14:06:25.515Z,100163.38
2019-04-03T14:08:59.583Z,100181.59
2019-04-03T14:11:33.345Z,100186.56
2019-04-03T14:14:07.059Z,100182.45
2019-04-03T14:16:40.766Z,100178.63
2019-04-03T14:19:14.489Z,100178.98
2019-04-03T14:21:48.447Z,100165.66
2019-04-03T14:24:22.569Z,100158.28
2019-04-03T14:26:56.537Z,100145.47
2019-04-03T14:29:30.679Z,100125.37
2019-04-03T14:32:04.450Z,100110.26
2019-04-03T14:34:40.064Z,100101.23
2019-04-03T14:37:13.698Z,100119.09
2019-04-03T14:39:47.506Z,100120.06
2019-04-03T14:42:21.163Z,100136.36
2019-04-03T14:44:54.940Z,100140.11
2019-04-03T14:47:28.652Z,100146.72
2019-04-03T14:50:04.971Z,100147.88
2019-04-03T14:52:38.429Z,100146.88
2019-04-03T14:55:19.932Z,100147.73
2019-04-03T14:57:47.715Z,100156.02
2019-04-03T15:00:27.464Z,100151.11
2019-04-03T15:02:57.627Z,100145.69
2019-04-03T15:05:32.309Z,100145.35
2019-04-03T15:08:06.215Z,100148.23
2019-04-03T15:10:40.450Z,100152.13
2019-04-03T15:13:14.893Z,100159.55
2019-04-03T15:15:48.770Z,100158.35
2019-04-03T15:18:23.486Z,100153.45
2019-04-03T15:20:57.227Z,100143.33
2019-04-03T15:23:31.113Z,100136.23
2019-04-03T15:26:04.987Z,100125.08
2019-04-03T15:28:38.883Z,100116.27
2019-04-03T15:31:14.328Z,100118.13
2019-04-03T15:33:48.294Z,100123.34
2019-04-03T15:36:22.035Z,100136.53
2019-04-03T15:38:58.403Z,100136.39
2019-04-03T15:41:33.979Z,100149.91
2019-04-03T15:44:07.103Z,100144.86
2019-04-03T15:46:40.933Z,100136.38
2019-04-03T15:49:14.642Z,100132.15
2019-04-03T15:51:48.393Z,100122.02
2019-04-03T15:54:22.562Z,100107.14
2019-04-03T15:56:56.735Z,100108.84
2019-04-03T15:59:30.895Z,100103.73
2019-04-03T16:02:05.074Z,100105.97
2019-04-03T16:04:38.786Z,100106.61
2019-04-03T16:07:12.831Z,100107.80
2019-04-03T16:09:49.541Z,100105.09
2019-04-03T16:12:22.338Z,100104.08
2019-04-03T16:14:56.294Z,100112.54
2019-04-03T16:17:32.323Z,100106.28
2019-04-03T16:20:06.123Z,100096.97
2019-04-03T16:22:40.263Z,100101.73
2019-04-03T16:25:17.216Z,100111.37
2019-04-03T16:27:49.880Z,100112.39
2019-04-03T16:30:23.937Z,100091.92
2019-04-03T16:33:02.421Z,100102.58
2019-04-03T16:35:33.805Z,100122.53
2019-04-03T16:38:08.271Z,100122.00
2019-04-03T16:40:42.189Z,100122.50
2019-04-03T16:43:16.350Z,100131.78
2019-04-03T16:45:50.344Z,100124.34
2019-04-03T16:48:24.547Z,100119.63
2019-04-03T16:51:00.151Z,100125.89
2019-04-03T16:53:33.686Z,100131.65
2019-04-03T16:56:07.394Z,100117.95
2019-04-03T16:58:41.165Z,100108.15
2019-04-03T17:01:15.139Z,100108.64
2019-04-03T17:03:49.347Z,100104.58
2019-04-03T17:06:22.993Z,100106.44
2019-04-03T17:08:58.677Z,100101.87
2019-04-03T17:11:32.198Z,100106.27
2019-04-03T17:14:06.011Z,100099.16
2019-04-03T17:16:39.988Z,100096.28
2019-04-03T17:19:13.745Z,100102.86
2019-04-03T17:21:47.442Z,100107.92
2019-04-03T17:24:21.208Z,100104.05
2019-04-03T17:26:58.312Z,100108.44
2019-04-03T17:29:30.673Z,100105.19
2019-04-03T17:32:07.971Z,100114.47
2019-04-03T17:34:43.066Z,100115.67
2019-04-03T17:37:19.118Z,100113.45
2019-04-03T17:39:52.506Z,100107.19
2019-04-03T17:42:26.167Z,100106.83
2019-04-03T17:45:00.204Z,100103.95
2019-04-03T17:47:33.900Z,100101.73
2019-04-03T17:50:08.051Z,100102.24
2019-04-03T17:52:41.745Z,100099.17
2019-04-03T17:55:16.001Z,100095.42
2019-04-03T17:57:49.702Z,100095.42
2019-04-03T18:00:23.907Z,100098.14
2019-04-03T18:02:57.693Z,100096.42
2019-04-03T18:05:33.173Z,100086.44
2019-04-03T18:08:06.905Z,100077.81
2019-04-03T18:10:42.583Z,100082.00
2019-04-03T18:13:16.346Z,100075.59
2019-04-03T18:15:50.175Z,100082.48
2019-04-03T18:18:23.877Z,100078.75
2019-04-03T18:20:57.610Z,100084.84
2019-04-03T18:23:31.311Z,100089.87
2019-04-03T18:26:05.395Z,100094.20
2019-04-03T18:28:39.106Z,100099.95
2019-04-03T18:31:13.622Z,100113.61
2019-04-03T18:33:48.768Z,100122.17
2019-04-03T18:36:23.016Z,100109.68
2019-04-03T18:38:56.708Z,100091.95
2019-04-03T18:41:30.428Z,100086.14
2019-04-03T18:44:04.421Z,100084.58
2019-04-03T18:46:38.169Z,100086.73
2019-04-03T18:49:11.874Z,100081.00
2019-04-03T18:51:45.617Z,100076.30
2019-04-03T18:54:19.317Z,100071.05
2019-04-03T18:56:53.053Z,100084.78
2019-04-03T18:59:26.762Z,100083.39
2019-04-03T19:02:03.552Z,100070.38
2019-04-03T19:04:37.681Z,100082.17
2019-04-03T19:07:12.043Z,100082.62
2019-04-03T19:09:45.751Z,100097.66
2019-04-03T19:12:19.491Z,100104.23
2019-04-03T19:14:53.198Z,100119.73
2019-04-03T19:17:27.120Z,100118.87
2019-04-03T19:20:10.234Z,100118.22
2019-04-03T19:22:36.513Z,100113.63
2019-04-03T19:25:10.759Z,100098.61
2019-04-03T19:27:44.493Z,100096.06
2019-04-03T19:30:18.540Z,100091.28
2019-04-03T19:32:52.607Z,100088.59
2019-04-03T19:35:28.494Z,100088.36
2019-04-03T19:38:04.759Z,100097.14
2019-04-03T19:40:40.332Z,100103.27
2019-04-03T19:43:14.921Z,100097.72
2019-04-03T19:45:49.869Z,100079.00
2019-04-03T19:48:25.648Z,100090.89
2019-04-03T19:51:02.728Z,100103.88
2019-04-03T19:53:36.042Z,100105.36
2019-04-03T19:56:09.778Z,100090.89
2019-04-03T19:58:43.517Z,100096.59
2019-04-03T20:01:17.367Z,100096.93
2019-04-03T20:03:51.097Z,100099.97
2019-04-03T20:06:24.870Z,100108.36
2019-04-03T20:08:58.985Z,100116.25
2019-04-03T20:11:35.768Z,100125.23
2019-04-03T20:14:11.190Z,100124.73
2019-04-03T20:16:44.968Z,100137.36
2019-04-03T20:19:19.072Z,100137.88
2019-04-03T20:21:53.118Z,100139.07
2019-04-03T20:24:26.870Z,100137.11
2019-04-03T20:27:00.850Z,100148.25
2019-04-03T20:29:34.632Z,100141.70
2019-04-03T20:32:08.338Z,100144.90
2019-04-03T20:34:44.403Z,100153.03
2019-04-03T20:37:18.084Z,100157.64
2019-04-03T20:39:51.897Z,100150.90
2019-04-03T20:42:25.867Z,100134.68
2019-04-03T20:44:59.845Z,100121.09
2019-04-03T20:47:33.961Z,100112.31
2019-04-03T20:50:08.184Z,100113.11
2019-04-03T20:52:41.886Z,100103.18
2019-04-03T20:55:15.710Z,100096.67
2019-04-03T20:57:55.290Z,100098.03
2019-04-03T21:00:25.172Z,100096.09
2019-04-03T21:02:58.874Z,100093.59
2019-04-03T21:05:32.668Z,100089.55
2019-04-03T21:08:06.442Z,100082.61
2019-04-03T21:10:40.199Z,100079.56
2019-04-03T21:13:15.531Z,100071.44
2019-04-03T21:15:52.113Z,100066.85
2019-04-03T21:18:24.813Z,100065.70
2019-04-03T21:21:01.215Z,100062.27
2019-04-03T21:23:34.243Z,100060.72
2019-04-03T21:26:08.236Z,100059.72
2019-04-03T21:28:42.971Z,100062.06
2019-04-03T21:31:17.733Z,100059.53
2019-04-03T21:33:51.441Z,100069.80
2019-04-03T21:36:25.496Z,100069.14
2019-04-03T21:38:59.416Z,100082.42
2019-04-03T21:41:33.158Z,100095.05
2019-04-03T21:44:06.861Z,100099.94
2019-04-03T21:46:40.605Z,100105.08
2019-04-03T21:49:14.820Z,100110.31
2019-04-03T21:51:51.914Z,100113.55
2019-04-03T21:54:26.912Z,100113.77
2019-04-03T21:57:01.064Z,100107.86
2019-04-03T21:59:35.048Z,100100.45
2019-04-03T22:02:08.809Z,100098.95
2019-04-03T22:04:42.512Z,100098.09
2019-04-03T22:07:16.524Z,100098.95
2019-04-03T22:09:50.509Z,100091.02
2019-04-03T22:12:24.253Z,100091.35
2019-04-03T22:14:57.958Z,100071.89
2019-04-03T22:17:31.743Z,100061.62
2019-04-03T22:20:06.169Z,100049.10
2019-04-03T22:22:40.143Z,100031.73
2019-04-03T22:25:13.856Z,100042.46
2019-04-03T22:27:47.583Z,100040.61
2019-04-03T22:30:21.863Z,100052.89
2019-04-03T22:32:56.442Z,100059.27
2019-04-03T22:35:32.259Z,100055.73
2019-04-03T22:38:06.194Z,100054.28
2019-04-03T22:40:41.480Z,100057.17
2019-04-03T22:43:15.534Z,100053.83
2019-04-03T22:45:50.708Z,100059.52
2019-04-03T22:48:26.607Z,100058.67
2019-04-03T22:51:00.393Z,100060.12
2019-04-03T22:53:34.379Z,100051.19
2019-04-03T22:56:08.081Z,100054.73
2019-04-03T22:58:42.172Z,100059.77
2019-04-03T23:01:16.042Z,100051.82
2019-04-03T23:03:49.773Z,100040.70
2019-04-03T23:06:23.476Z,100037.02
2019-04-03T23:08:57.225Z,100025.39
2019-04-03T23:11:32.044Z,100042.75
2019-04-03T23:14:07.561Z,100048.13
2019-04-03T23:16:42.694Z,100047.44
2019-04-03T23:19:18.036Z,100043.74
2019-04-03T23:21:52.930Z,100041.45
2019-04-03T23:24:28.883Z,100034.97
2019-04-03T23:27:03.600Z,100034.97
2019-04-03T23:29:37.688Z,100039.25
2019-04-03T23:32:11.384Z,100039.25
2019-04-03T23:34:45.133Z,100060.39
2019-04-03T23:37:18.834Z,100075.02
2019-04-03T23:39:52.855Z,100075.02
2019-04-03T23:42:26.843Z,100103.31
2019-04-03T23:45:00.581Z,100092.27
2019-04-03T23:47:34.282Z,100092.27
2019-04-03T23:50:08.576Z,100087.08
2019-04-03T23:52:42.280Z,100075.06
2019-04-03T23:55:16.033Z,100062.98
2019-04-03T23:57:49.744Z,100059.15
